createdAt,value
2016-02-10T00:00:11.620Z,0
2016-02-10T00:01:11.592Z,0
2016-02-10T00:02:11.580Z,0
2016-02-10T00:03:11.535Z,0
2016-02-10T00:04:11.506Z,0
2016-02-10T00:05:11.495Z,0
2016-02-10T00:06:11.450Z,0
2016-02-10T00:07:11.423Z,0
2016-02-10T00:08:11.411Z,0
2016-02-10T00:09:11.366Z,0
2016-02-10T00:10:11.339Z,0
2016-02-10T00:11:11.325Z,0
2016-02-10T00:12:11.281Z,0
2016-02-10T00:13:11.253Z,0
2016-02-10T00:14:11.256Z,0
2016-02-10T00:15:11.209Z,0
2016-02-10T00:16:11.165Z,0
2016-02-10T00:17:11.142Z,0
2016-02-10T00:18:10.973Z,0
2016-02-10T00:19:11.101Z,0
2016-02-10T00:20:11.056Z,0
2016-02-10T00:21:11.044Z,0
2016-02-10T00:22:11.000Z,0
2016-02-10T00:23:10.971Z,0
2016-02-10T00:24:10.958Z,0
2016-02-10T00:25:10.918Z,0
2016-02-10T00:26:10.873Z,0
2016-02-10T00:27:10.877Z,0
2016-02-10T00:28:10.848Z,0
2016-02-10T00:29:10.819Z,0
2016-02-10T00:30:10.775Z,0
2016-02-10T00:31:10.762Z,0
2016-02-10T00:32:10.733Z,0
2016-02-10T00:33:10.691Z,0
2016-02-10T00:34:10.521Z,0
2016-02-10T00:35:10.633Z,0
2016-02-10T00:36:10.620Z,0
2016-02-10T00:37:10.607Z,0
2016-02-10T00:38:10.563Z,0
2016-02-10T00:39:10.534Z,0
2016-02-10T00:40:10.509Z,0
2016-02-10T00:41:10.465Z,0
2016-02-10T00:42:10.436Z,0
2016-02-10T00:43:10.440Z,0
2016-02-10T00:44:10.395Z,0
2016-02-10T00:45:10.365Z,0
2016-02-10T00:46:10.338Z,0
2016-02-10T00:47:10.325Z,0
2016-02-10T00:48:10.281Z,0
2016-02-10T00:49:10.252Z,0
2016-02-10T00:50:10.239Z,0
2016-02-10T00:51:10.195Z,0
2016-02-10T00:52:10.167Z,0
2016-02-10T00:53:10.153Z,0
2016-02-10T00:54:10.108Z,0
2016-02-10T00:55:10.081Z,0
2016-02-10T00:56:10.067Z,0
2016-02-10T00:57:10.023Z,0
2016-02-10T00:58:09.995Z,0
2016-02-10T00:59:09.966Z,0
2016-02-10T01:00:09.938Z,0
2016-02-10T01:01:09.941Z,0
2016-02-10T01:02:09.880Z,0
2016-02-10T01:03:09.852Z,0
2016-02-10T01:04:09.855Z,0
2016-02-10T01:05:09.795Z,0
2016-02-10T01:06:09.766Z,0
2016-02-10T01:07:09.753Z,0
2016-02-10T01:08:09.710Z,0
2016-02-10T01:09:09.680Z,0
2016-02-10T01:10:09.653Z,0
2016-02-10T01:11:09.626Z,0
2016-02-10T01:12:09.597Z,0
2016-02-10T01:13:09.568Z,0
2016-02-10T01:14:09.540Z,0
2016-02-10T01:15:09.511Z,0
2016-02-10T01:16:09.483Z,0
2016-02-10T01:17:09.454Z,0
2016-02-10T01:18:09.425Z,0
2016-02-10T01:19:09.413Z,0
2016-02-10T01:20:09.369Z,0
2016-02-10T01:21:09.339Z,0
2016-02-10T01:22:09.328Z,0
2016-02-10T01:23:09.127Z,0
2016-02-10T01:24:09.254Z,0
2016-02-10T01:25:09.225Z,0
2016-02-10T01:26:09.216Z,0
2016-02-10T01:27:09.172Z,0
2016-02-10T01:28:09.143Z,0
2016-02-10T01:29:09.114Z,0
2016-02-10T01:30:09.086Z,0
2016-02-10T01:31:09.041Z,0
2016-02-10T01:32:09.044Z,0
2016-02-10T01:33:09.000Z,0
2016-02-10T01:34:08.956Z,0
2016-02-10T01:35:08.945Z,0
2016-02-10T01:36:08.916Z,0
2016-02-10T01:37:08.887Z,0
2016-02-10T01:38:08.874Z,0
2016-02-10T01:39:08.095Z,0
2016-02-10T01:40:08.801Z,0
2016-02-10T01:41:08.786Z,0
2016-02-10T01:42:08.726Z,0
2016-02-10T01:43:08.714Z,0
2016-02-10T01:44:08.687Z,0
2016-02-10T01:45:08.657Z,0
2016-02-10T01:46:08.628Z,0
2016-02-10T01:47:08.585Z,0
2016-02-10T01:48:08.572Z,0
2016-02-10T01:49:08.542Z,0
2016-02-10T01:50:08.499Z,0
2016-02-10T01:51:08.471Z,0
2016-02-10T01:52:08.459Z,0
2016-02-10T01:53:08.415Z,0
2016-02-10T01:54:08.401Z,0
2016-02-10T01:55:08.373Z,0
2016-02-10T01:56:08.328Z,0
2016-02-10T01:57:08.315Z,0
2016-02-10T01:58:08.286Z,0
2016-02-10T01:59:08.244Z,0
2016-02-10T02:00:08.277Z,0
2016-02-10T02:01:08.234Z,0
2016-02-10T02:02:08.158Z,0
2016-02-10T02:03:08.129Z,0
2016-02-10T02:04:08.117Z,0
2016-02-10T02:05:08.073Z,0
2016-02-10T02:06:08.043Z,0
2016-02-10T02:07:07.876Z,0
2016-02-10T02:08:07.989Z,0
2016-02-10T02:09:07.961Z,0
2016-02-10T02:10:07.948Z,0
2016-02-10T02:11:07.903Z,0
2016-02-10T02:12:07.877Z,0
2016-02-10T02:13:07.863Z,0
2016-02-10T02:14:07.819Z,0
2016-02-10T02:15:07.807Z,0
2016-02-10T02:16:07.777Z,0
2016-02-10T02:17:07.749Z,0
2016-02-10T02:18:07.705Z,0
2016-02-10T02:19:07.676Z,0
2016-02-10T02:20:07.663Z,0
2016-02-10T02:21:07.635Z,0
2016-02-10T02:22:07.606Z,0
2016-02-10T02:23:07.562Z,0
2016-02-10T02:24:07.549Z,0
2016-02-10T02:25:07.520Z,0
2016-02-10T02:26:07.492Z,0
2016-02-10T02:27:07.465Z,0
2016-02-10T02:28:07.420Z,0
2016-02-10T02:29:07.392Z,0
2016-02-10T02:30:07.363Z,0
2016-02-10T02:31:07.351Z,0
2016-02-10T02:32:07.307Z,0
2016-02-10T02:33:07.278Z,0
2016-02-10T02:34:07.109Z,0
2016-02-10T02:35:07.079Z,0
2016-02-10T02:36:07.192Z,0
2016-02-10T02:37:07.178Z,0
2016-02-10T02:38:07.151Z,0
2016-02-10T02:39:07.122Z,0
2016-02-10T02:40:07.109Z,0
2016-02-10T02:41:07.065Z,0
2016-02-10T02:42:07.036Z,0
2016-02-10T02:43:07.010Z,0
2016-02-10T02:44:06.982Z,0
2016-02-10T02:45:06.953Z,0
2016-02-10T02:46:06.925Z,0
2016-02-10T02:47:06.897Z,0
2016-02-10T02:48:06.867Z,0
2016-02-10T02:49:06.839Z,0
2016-02-10T02:50:06.811Z,0
2016-02-10T02:51:06.797Z,0
2016-02-10T02:52:06.755Z,0
2016-02-10T02:53:06.754Z,0
2016-02-10T02:54:06.685Z,0
2016-02-10T02:55:06.645Z,0
2016-02-10T02:56:06.604Z,0
2016-02-10T02:57:06.581Z,0
2016-02-10T02:58:06.527Z,0
2016-02-10T02:59:06.494Z,0
2016-02-10T03:00:06.447Z,0
2016-02-10T03:01:06.461Z,0
2016-02-10T03:02:06.398Z,0
2016-02-10T03:03:06.365Z,0
2016-02-10T03:04:06.038Z,0
2016-02-10T03:05:06.304Z,0
2016-02-10T03:06:06.275Z,0
2016-02-10T03:07:06.307Z,0
2016-02-10T03:08:06.214Z,0
2016-02-10T03:09:06.187Z,0
2016-02-10T03:10:06.158Z,0
2016-02-10T03:11:06.129Z,0
2016-02-10T03:12:06.100Z,0
2016-02-10T03:13:06.071Z,0
2016-02-10T03:14:06.033Z,0
2016-02-10T03:15:06.036Z,0
2016-02-10T03:16:05.991Z,0
2016-02-10T03:17:05.823Z,0
2016-02-10T03:18:05.935Z,0
2016-02-10T03:19:05.905Z,0
2016-02-10T03:20:05.878Z,0
2016-02-10T03:21:05.852Z,0
2016-02-10T03:22:05.822Z,0
2016-02-10T03:23:05.794Z,0
2016-02-10T03:24:05.766Z,0
2016-02-10T03:25:05.737Z,0
2016-02-10T03:26:05.708Z,0
2016-02-10T03:27:05.680Z,0
2016-02-10T03:28:05.652Z,0
2016-02-10T03:29:05.623Z,0
2016-02-10T03:30:05.594Z,0
2016-02-10T03:31:05.565Z,0
2016-02-10T03:32:05.538Z,0
2016-02-10T03:33:05.509Z,0
2016-02-10T03:34:05.479Z,0
2016-02-10T03:35:05.452Z,0
2016-02-10T03:36:05.439Z,0
2016-02-10T03:37:05.395Z,0
2016-02-10T03:38:05.351Z,0
2016-02-10T03:39:05.353Z,0
2016-02-10T03:40:05.325Z,0
2016-02-10T03:41:04.546Z,0
2016-02-10T03:42:05.251Z,0
2016-02-10T03:43:05.239Z,0
2016-02-10T03:44:05.216Z,0
2016-02-10T03:45:05.187Z,0
2016-02-10T03:46:05.159Z,0
2016-02-10T03:47:05.115Z,0
2016-02-10T03:48:05.086Z,0
2016-02-10T03:49:05.043Z,0
2016-02-10T03:50:05.030Z,0
2016-02-10T03:51:05.002Z,0
2016-02-10T03:52:04.958Z,0
2016-02-10T03:53:04.946Z,0
2016-02-10T03:54:04.916Z,0
2016-02-10T03:55:04.872Z,0
2016-02-10T03:56:04.860Z,0
2016-02-10T03:57:04.815Z,0
2016-02-10T03:58:04.787Z,0
2016-02-10T03:59:04.774Z,0
2016-02-10T04:00:04.605Z,0
2016-02-10T04:01:04.717Z,0
2016-02-10T04:02:04.673Z,0
2016-02-10T04:03:04.644Z,0
2016-02-10T04:04:04.631Z,0
2016-02-10T04:05:04.587Z,0
2016-02-10T04:06:04.558Z,0
2016-02-10T04:07:04.530Z,0
2016-02-10T04:08:04.501Z,0
2016-02-10T04:09:04.489Z,0
2016-02-10T04:10:04.446Z,0
2016-02-10T04:11:04.432Z,0
2016-02-10T04:12:04.404Z,0
2016-02-10T04:13:04.375Z,0
2016-02-10T04:14:04.331Z,0
2016-02-10T04:15:04.302Z,0
2016-02-10T04:16:04.275Z,0
2016-02-10T04:17:04.278Z,0
2016-02-10T04:18:04.219Z,0
2016-02-10T04:19:04.190Z,0
2016-02-10T04:20:04.192Z,0
2016-02-10T04:21:04.133Z,0
2016-02-10T04:22:04.105Z,0
2016-02-10T04:23:04.092Z,0
2016-02-10T04:24:04.047Z,0
2016-02-10T04:25:04.019Z,0
2016-02-10T04:26:04.011Z,0
2016-02-10T04:27:03.951Z,0
2016-02-10T04:28:03.938Z,0
2016-02-10T04:29:03.925Z,0
2016-02-10T04:30:03.880Z,0
2016-02-10T04:31:03.837Z,0
2016-02-10T04:32:03.824Z,0
2016-02-10T04:33:03.810Z,0
2016-02-10T04:34:03.782Z,0
2016-02-10T04:35:03.737Z,0
2016-02-10T04:36:03.710Z,0
2016-02-10T04:37:03.681Z,0
2016-02-10T04:38:03.652Z,0
2016-02-10T04:39:03.624Z,0
2016-02-10T04:40:03.611Z,0
2016-02-10T04:41:03.567Z,0
2016-02-10T04:42:03.538Z,0
2016-02-10T04:43:03.510Z,0
2016-02-10T04:44:03.482Z,0
2016-02-10T04:45:03.468Z,0
2016-02-10T04:46:03.428Z,0
2016-02-10T04:47:03.416Z,0
2016-02-10T04:48:03.372Z,0
2016-02-10T04:49:03.343Z,0
2016-02-10T04:50:03.330Z,0
2016-02-10T04:51:03.286Z,0
2016-02-10T04:52:03.257Z,0
2016-02-10T04:53:03.244Z,0
2016-02-10T04:54:03.201Z,0
2016-02-10T04:55:03.172Z,0
2016-02-10T04:56:03.160Z,0
2016-02-10T04:57:03.116Z,0
2016-02-10T04:58:03.086Z,0
2016-02-10T04:59:03.074Z,0
2016-02-10T05:00:03.030Z,0
2016-02-10T05:01:03.002Z,0
2016-02-10T05:02:02.973Z,0
2016-02-10T05:03:03.023Z,0
2016-02-10T05:04:02.916Z,0
2016-02-10T05:05:02.889Z,0
2016-02-10T05:06:02.859Z,0
2016-02-10T05:07:02.846Z,0
2016-02-10T05:08:02.803Z,0
2016-02-10T05:09:02.774Z,0
2016-02-10T05:10:02.761Z,0
2016-02-10T05:11:02.704Z,0
2016-02-10T05:12:02.691Z,0
2016-02-10T05:13:02.663Z,0
2016-02-10T05:14:02.634Z,0
2016-02-10T05:15:02.605Z,0
2016-02-10T05:16:02.576Z,0
2016-02-10T05:17:02.564Z,0
2016-02-10T05:18:02.526Z,0
2016-02-10T05:19:02.482Z,0
2016-02-10T05:20:02.485Z,0
2016-02-10T05:21:02.440Z,0
2016-02-10T05:22:02.413Z,0
2016-02-10T05:23:02.415Z,0
2016-02-10T05:24:02.355Z,0
2016-02-10T05:25:02.311Z,0
2016-02-10T05:26:02.314Z,0
2016-02-10T05:27:02.270Z,0
2016-02-10T05:28:02.226Z,0
2016-02-10T05:29:02.213Z,0
2016-02-10T05:30:02.168Z,0
2016-02-10T05:31:02.157Z,0
2016-02-10T05:32:02.112Z,0
2016-02-10T05:33:02.098Z,0
2016-02-10T05:34:02.055Z,0
2016-02-10T05:35:02.042Z,0
2016-02-10T05:36:01.998Z,0
2016-02-10T05:37:01.971Z,0
2016-02-10T05:38:01.957Z,0
2016-02-10T05:39:01.945Z,0
2016-02-10T05:40:01.886Z,0
2016-02-10T05:41:01.857Z,0
2016-02-10T05:42:01.843Z,0
2016-02-10T05:43:01.800Z,0
2016-02-10T05:44:01.771Z,0
2016-02-10T05:45:01.757Z,0
2016-02-10T05:46:01.730Z,0
2016-02-10T05:47:01.701Z,0
2016-02-10T05:48:01.659Z,0
2016-02-10T05:49:01.646Z,0
2016-02-10T05:50:01.617Z,0
2016-02-10T05:51:01.573Z,0
2016-02-10T05:52:01.544Z,0
2016-02-10T05:53:01.531Z,0
2016-02-10T05:54:01.488Z,0
2016-02-10T05:55:01.459Z,0
2016-02-10T05:56:01.431Z,0
2016-02-10T05:57:01.402Z,0
2016-02-10T05:58:01.373Z,0
2016-02-10T05:59:01.361Z,0
2016-02-10T06:00:01.316Z,0
2016-02-10T06:01:01.303Z,0
2016-02-10T06:02:01.258Z,0
2016-02-10T06:03:01.247Z,0
2016-02-10T06:04:01.203Z,0
2016-02-10T06:05:01.175Z,0
2016-02-10T06:06:01.161Z,0
2016-02-10T06:07:00.383Z,0
2016-02-10T06:08:01.089Z,0
2016-02-10T06:09:01.075Z,0
2016-02-10T06:10:01.031Z,0
2016-02-10T06:11:01.003Z,0
2016-02-10T06:12:00.992Z,0
2016-02-10T06:13:00.949Z,0
2016-02-10T06:14:00.919Z,0
2016-02-10T06:15:00.891Z,0
2016-02-10T06:16:00.708Z,0
2016-02-10T06:17:00.851Z,0
2016-02-10T06:18:00.807Z,0
2016-02-10T06:19:00.778Z,0
2016-02-10T06:20:00.766Z,0
2016-02-10T06:21:00.707Z,0
2016-02-10T06:22:00.694Z,0
2016-02-10T06:23:00.665Z,0
2016-02-10T06:24:00.620Z,0
2016-02-10T06:25:00.593Z,0
2016-02-10T06:26:00.595Z,0
2016-02-10T06:27:00.535Z,0
2016-02-10T06:28:00.507Z,0
2016-02-10T06:29:00.494Z,0
2016-02-10T06:30:00.466Z,0
2016-02-10T06:31:00.421Z,0
2016-02-10T06:32:00.393Z,0
2016-02-10T06:33:00.380Z,0
2016-02-10T06:34:00.337Z,0
2016-02-10T06:35:00.307Z,0
2016-02-10T06:36:00.295Z,0
2016-02-10T06:37:00.251Z,0
2016-02-10T06:38:00.237Z,0
2016-02-10T06:39:00.256Z,0
2016-02-10T06:40:00.196Z,0
2016-02-10T06:41:00.151Z,0
2016-02-10T06:42:00.123Z,0
2016-02-10T06:43:00.079Z,0
2016-02-10T06:44:00.050Z,0
2016-02-10T06:45:00.038Z,0
2016-02-10T06:46:00.009Z,0
2016-02-10T06:47:00.012Z,0
2016-02-10T06:47:59.939Z,0
2016-02-10T06:48:59.911Z,0
2016-02-10T06:49:59.898Z,0
2016-02-10T06:50:59.854Z,0
2016-02-10T06:51:59.825Z,0
2016-02-10T06:52:59.796Z,0
2016-02-10T06:53:59.768Z,0
2016-02-10T06:54:59.756Z,0
2016-02-10T06:55:59.712Z,0
2016-02-10T06:56:59.684Z,0
2016-02-10T06:57:59.671Z,0
2016-02-10T06:58:59.627Z,0
2016-02-10T06:59:59.599Z,0
2016-02-10T07:00:59.570Z,0
2016-02-10T07:01:59.541Z,0
2016-02-10T07:02:59.512Z,5
2016-02-10T07:03:59.485Z,0
2016-02-10T07:04:59.442Z,0
2016-02-10T07:05:59.428Z,5
2016-02-10T07:06:59.401Z,5
2016-02-10T07:07:59.372Z,5
2016-02-10T07:08:59.359Z,5
2016-02-10T07:09:59.315Z,5
2016-02-10T07:10:59.272Z,5
2016-02-10T07:11:59.273Z,5
2016-02-10T07:12:59.232Z,5
2016-02-10T07:13:59.187Z,5
2016-02-10T07:14:59.174Z,5
2016-02-10T07:15:59.146Z,10
2016-02-10T07:16:59.117Z,10
2016-02-10T07:17:59.075Z,10
2016-02-10T07:18:59.051Z,10
2016-02-10T07:19:59.023Z,10
2016-02-10T07:20:59.009Z,10
2016-02-10T07:21:58.762Z,10
2016-02-10T07:22:58.952Z,10
2016-02-10T07:23:58.924Z,10
2016-02-10T07:24:58.880Z,10
2016-02-10T07:25:58.866Z,10
2016-02-10T07:26:58.822Z,15
2016-02-10T07:27:58.794Z,15
2016-02-10T07:28:58.780Z,15
2016-02-10T07:29:58.722Z,20
2016-02-10T07:30:58.709Z,25
2016-02-10T07:31:58.681Z,25
2016-02-10T07:32:58.667Z,25
2016-02-10T07:33:58.624Z,30
2016-02-10T07:34:58.580Z,30
2016-02-10T07:35:58.566Z,30
2016-02-10T07:36:58.522Z,25
2016-02-10T07:37:58.496Z,25
2016-02-10T07:38:58.638Z,25
2016-02-10T07:39:58.454Z,25
2016-02-10T07:40:58.426Z,25
2016-02-10T07:41:58.381Z,25
2016-02-10T07:42:58.353Z,25
2016-02-10T07:43:58.340Z,25
2016-02-10T07:44:58.296Z,25
2016-02-10T07:45:58.283Z,25
2016-02-10T07:46:58.255Z,25
2016-02-10T07:47:58.368Z,30
2016-02-10T07:48:58.182Z,30
2016-02-10T07:49:58.155Z,30
2016-02-10T07:50:58.126Z,35
2016-02-10T07:51:58.098Z,40
2016-02-10T07:52:58.085Z,45
2016-02-10T07:53:58.041Z,50
2016-02-10T07:54:58.013Z,50
2016-02-10T07:55:58.077Z,50
2016-02-10T07:56:57.955Z,55
2016-02-10T07:57:57.926Z,50
2016-02-10T07:58:57.898Z,45
2016-02-10T07:59:57.868Z,45
2016-02-10T08:00:57.825Z,40
2016-02-10T08:01:58.202Z,45
2016-02-10T08:02:57.770Z,50
2016-02-10T08:03:57.617Z,55
2016-02-10T08:04:57.712Z,55
2016-02-10T08:05:57.780Z,55
2016-02-10T08:06:57.658Z,70
2016-02-10T08:07:57.644Z,80
2016-02-10T08:08:57.600Z,70
2016-02-10T08:09:57.588Z,75
2016-02-10T08:10:57.544Z,80
2016-02-10T08:11:57.530Z,95
2016-02-10T08:12:57.549Z,115
2016-02-10T08:13:57.551Z,135
2016-02-10T08:14:57.432Z,120
2016-02-10T08:15:57.404Z,120
2016-02-10T08:16:57.407Z,115
2016-02-10T08:17:57.346Z,115
2016-02-10T08:18:57.307Z,115
2016-02-10T08:19:57.310Z,110
2016-02-10T08:20:57.265Z,90
2016-02-10T08:21:57.221Z,75
2016-02-10T08:22:57.210Z,80
2016-02-10T08:23:57.180Z,80
2016-02-10T08:24:57.168Z,80
2016-02-10T08:25:57.140Z,85
2016-02-10T08:26:57.079Z,90
2016-02-10T08:27:57.083Z,90
2016-02-10T08:28:57.023Z,95
2016-02-10T08:29:57.010Z,95
2016-02-10T08:30:57.311Z,100
2016-02-10T08:31:56.970Z,115
2016-02-10T08:32:57.097Z,105
2016-02-10T08:33:56.882Z,105
2016-02-10T08:34:56.869Z,95
2016-02-10T08:35:56.824Z,115
2016-02-10T08:36:56.796Z,125
2016-02-10T08:37:56.783Z,130
2016-02-10T08:38:56.583Z,140
2016-02-10T08:39:56.696Z,175
2016-02-10T08:40:56.682Z,180
2016-02-10T08:41:56.684Z,195
2016-02-10T08:42:56.625Z,215
2016-02-10T08:43:56.612Z,240
2016-02-10T08:44:56.569Z,235
2016-02-10T08:45:56.571Z,255
2016-02-10T08:46:56.528Z,245
2016-02-10T08:47:56.484Z,200
2016-02-10T08:48:56.455Z,205
2016-02-10T08:49:56.542Z,185
2016-02-10T08:50:56.764Z,150
2016-02-10T08:51:56.391Z,135
2016-02-10T08:52:56.504Z,135
2016-02-10T08:53:56.303Z,130
2016-02-10T08:54:56.291Z,110
2016-02-10T08:55:56.247Z,110
2016-02-10T08:56:56.234Z,100
2016-02-10T08:57:56.222Z,90
2016-02-10T08:58:56.193Z,80
2016-02-10T08:59:56.148Z,80
2016-02-10T09:00:56.105Z,70
2016-02-10T09:01:56.109Z,90
2016-02-10T09:02:56.079Z,115
2016-02-10T09:03:56.051Z,100
2016-02-10T09:04:55.850Z,90
2016-02-10T09:05:55.979Z,100
2016-02-10T09:06:55.950Z,90
2016-02-10T09:07:55.968Z,110
2016-02-10T09:08:55.892Z,120
2016-02-10T09:09:55.864Z,155
2016-02-10T09:10:55.820Z,185
2016-02-10T09:11:55.806Z,225
2016-02-10T09:12:55.778Z,245
2016-02-10T09:13:55.750Z,225
2016-02-10T09:14:55.816Z,220
2016-02-10T09:15:55.693Z,200
2016-02-10T09:16:55.665Z,165
2016-02-10T09:17:55.652Z,140
2016-02-10T09:18:55.623Z,130
2016-02-10T09:19:55.579Z,120
2016-02-10T09:20:55.601Z,120
2016-02-10T09:21:55.527Z,140
2016-02-10T09:22:55.499Z,135
2016-02-10T09:23:55.454Z,140
2016-02-10T09:24:55.441Z,180
2016-02-10T09:25:55.397Z,205
2016-02-10T09:26:55.400Z,240
2016-02-10T09:27:57.059Z,305
2016-02-10T09:28:55.421Z,360
2016-02-10T09:29:55.298Z,395
2016-02-10T09:30:55.286Z,305
2016-02-10T09:31:55.257Z,215
2016-02-10T09:32:55.198Z,275
2016-02-10T09:33:55.217Z,295
2016-02-10T09:34:55.328Z,355
2016-02-10T09:35:55.160Z,470
2016-02-10T09:36:55.100Z,370
2016-02-10T09:37:55.071Z,325
2016-02-10T09:38:55.058Z,270
2016-02-10T09:39:55.013Z,240
2016-02-10T09:40:54.986Z,230
2016-02-10T09:41:54.973Z,260
2016-02-10T09:42:54.944Z,320
2016-02-10T09:43:54.916Z,245
2016-02-10T09:44:54.872Z,190
2016-02-10T09:45:54.859Z,160
2016-02-10T09:46:54.830Z,165
2016-02-10T09:47:54.786Z,175
2016-02-10T09:48:54.759Z,175
2016-02-10T09:49:54.763Z,205
2016-02-10T09:50:54.735Z,265
2016-02-10T09:51:54.690Z,300
2016-02-10T09:52:54.663Z,240
2016-02-10T09:53:54.651Z,285
2016-02-10T09:54:54.669Z,305
2016-02-10T09:55:54.593Z,310
2016-02-10T09:56:54.550Z,390
2016-02-10T09:57:54.564Z,410
2016-02-10T09:58:54.505Z,325
2016-02-10T09:59:54.508Z,430
2016-02-10T10:00:54.463Z,410
2016-02-10T10:01:54.482Z,355
2016-02-10T10:02:54.390Z,460
2016-02-10T10:03:54.377Z,495
2016-02-10T10:04:54.364Z,535
2016-02-10T10:05:54.415Z,500
2016-02-10T10:06:54.292Z,420
2016-02-10T10:07:54.248Z,355
2016-02-10T10:08:54.267Z,340
2016-02-10T10:09:54.207Z,300
2016-02-10T10:10:54.178Z,275
2016-02-10T10:11:54.150Z,265
2016-02-10T10:12:54.153Z,260
2016-02-10T10:13:54.501Z,240
2016-02-10T10:14:54.097Z,250
2016-02-10T10:15:53.959Z,250
2016-02-10T10:16:54.025Z,340
2016-02-10T10:17:53.997Z,335
2016-02-10T10:18:53.968Z,285
2016-02-10T10:19:53.940Z,310
2016-02-10T10:20:53.927Z,320
2016-02-10T10:21:53.882Z,325
2016-02-10T10:22:53.887Z,285
2016-02-10T10:23:53.843Z,345
2016-02-10T10:24:53.831Z,330
2016-02-10T10:25:53.771Z,265
2016-02-10T10:26:53.742Z,280
2016-02-10T10:27:53.729Z,320
2016-02-10T10:28:53.700Z,280
2016-02-10T10:29:53.672Z,250
2016-02-10T10:30:53.659Z,240
2016-02-10T10:31:53.631Z,210
2016-02-10T10:32:53.617Z,205
2016-02-10T10:33:53.668Z,225
2016-02-10T10:34:53.546Z,205
2016-02-10T10:35:53.533Z,200
2016-02-10T10:36:53.535Z,185
2016-02-10T10:37:53.460Z,180
2016-02-10T10:38:53.448Z,185
2016-02-10T10:39:53.403Z,205
2016-02-10T10:40:53.375Z,205
2016-02-10T10:41:53.346Z,155
2016-02-10T10:42:53.318Z,155
2016-02-10T10:43:53.304Z,170
2016-02-10T10:44:53.262Z,170
2016-02-10T10:45:53.232Z,180
2016-02-10T10:46:53.220Z,185
2016-02-10T10:47:53.190Z,205
2016-02-10T10:48:53.178Z,210
2016-02-10T10:49:53.150Z,200
2016-02-10T10:50:53.107Z,200
2016-02-10T10:51:53.083Z,245
2016-02-10T10:52:53.057Z,250
2016-02-10T10:53:53.029Z,235
2016-02-10T10:54:52.875Z,230
2016-02-10T10:55:52.971Z,255
2016-02-10T10:56:52.943Z,260
2016-02-10T10:57:52.930Z,295
2016-02-10T10:58:52.886Z,290
2016-02-10T10:59:52.874Z,270
2016-02-10T11:00:52.845Z,265
2016-02-10T11:01:52.816Z,290
2016-02-10T11:02:52.866Z,255
2016-02-10T11:03:52.759Z,235
2016-02-10T11:04:52.746Z,250
2016-02-10T11:05:52.702Z,220
2016-02-10T11:06:52.690Z,225
2016-02-10T11:07:52.646Z,220
2016-02-10T11:08:52.632Z,235
2016-02-10T11:09:52.588Z,215
2016-02-10T11:10:52.590Z,220
2016-02-10T11:11:52.546Z,210
2016-02-10T11:12:52.362Z,190
2016-02-10T11:13:52.473Z,180
2016-02-10T11:14:52.476Z,185
2016-02-10T11:15:52.434Z,165
2016-02-10T11:16:52.422Z,175
2016-02-10T11:17:52.378Z,180
2016-02-10T11:18:52.364Z,215
2016-02-10T11:19:52.322Z,175
2016-02-10T11:20:52.309Z,140
2016-02-10T11:21:52.265Z,125
2016-02-10T11:22:52.096Z,120
2016-02-10T11:23:52.225Z,135
2016-02-10T11:24:52.244Z,140
2016-02-10T11:25:52.543Z,140
2016-02-10T11:26:52.217Z,125
2016-02-10T11:27:52.111Z,120
2016-02-10T11:28:52.442Z,130
2016-02-10T11:29:52.053Z,125
2016-02-10T11:30:52.041Z,135
2016-02-10T11:31:51.997Z,150
2016-02-10T11:32:51.985Z,170
2016-02-10T11:33:52.050Z,220
2016-02-10T11:34:51.945Z,205
2016-02-10T11:35:51.886Z,210
2016-02-10T11:36:51.872Z,230
2016-02-10T11:37:51.844Z,245
2016-02-10T11:38:51.816Z,220
2016-02-10T11:39:51.786Z,220
2016-02-10T11:40:51.774Z,250
2016-02-10T11:41:51.730Z,220
2016-02-10T11:42:51.701Z,210
2016-02-10T11:43:51.688Z,235
2016-02-10T11:44:51.800Z,250
2016-02-10T11:45:51.632Z,245
2016-02-10T11:46:51.587Z,205
2016-02-10T11:47:51.558Z,235
2016-02-10T11:48:51.546Z,255
2016-02-10T11:49:51.501Z,265
2016-02-10T11:50:51.335Z,225
2016-02-10T11:51:51.447Z,235
2016-02-10T11:52:51.435Z,230
2016-02-10T11:53:51.407Z,190
2016-02-10T11:54:51.394Z,200
2016-02-10T11:55:51.349Z,185
2016-02-10T11:56:51.321Z,170
2016-02-10T11:57:51.293Z,165
2016-02-10T11:58:51.291Z,150
2016-02-10T11:59:51.218Z,160
2016-02-10T12:00:51.192Z,185
2016-02-10T12:01:51.149Z,180
2016-02-10T12:02:51.106Z,205
2016-02-10T12:03:51.098Z,160
2016-02-10T12:04:51.017Z,140
2016-02-10T12:05:50.999Z,155
2016-02-10T12:06:50.966Z,150
2016-02-10T12:07:50.932Z,195
2016-02-10T12:08:50.916Z,190
2016-02-10T12:09:50.887Z,200
2016-02-10T12:10:50.855Z,225
2016-02-10T12:11:50.825Z,265
2016-02-10T12:12:50.779Z,220
2016-02-10T12:13:50.796Z,215
2016-02-10T12:14:50.752Z,185
2016-02-10T12:15:50.692Z,190
2016-02-10T12:16:50.675Z,240
2016-02-10T12:17:50.662Z,265
2016-02-10T12:18:50.633Z,255
2016-02-10T12:19:50.589Z,315
2016-02-10T12:20:50.560Z,290
2016-02-10T12:21:50.531Z,285
2016-02-10T12:22:50.523Z,270
2016-02-10T12:23:50.478Z,270
2016-02-10T12:24:50.450Z,275
2016-02-10T12:25:50.422Z,290
2016-02-10T12:26:50.424Z,300
2016-02-10T12:27:50.380Z,250
2016-02-10T12:28:50.351Z,205
2016-02-10T12:29:50.322Z,220
2016-02-10T12:30:50.294Z,235
2016-02-10T12:31:50.281Z,240
2016-02-10T12:32:50.252Z,290
2016-02-10T12:33:50.287Z,310
2016-02-10T12:34:50.197Z,310
2016-02-10T12:35:50.168Z,310
2016-02-10T12:36:50.139Z,345
2016-02-10T12:37:50.173Z,340
2016-02-10T12:38:50.098Z,255
2016-02-10T12:39:50.053Z,255
2016-02-10T12:40:50.041Z,295
2016-02-10T12:41:49.997Z,250
2016-02-10T12:42:49.999Z,205
2016-02-10T12:43:49.971Z,190
2016-02-10T12:44:49.927Z,170
2016-02-10T12:45:49.897Z,200
2016-02-10T12:46:49.885Z,195
2016-02-10T12:47:49.841Z,190
2016-02-10T12:48:49.827Z,210
2016-02-10T12:49:49.799Z,195
2016-02-10T12:50:49.781Z,175
2016-02-10T12:51:49.752Z,145
2016-02-10T12:52:49.707Z,140
2016-02-10T12:53:49.679Z,165
2016-02-10T12:54:49.681Z,160
2016-02-10T12:55:49.653Z,155
2016-02-10T12:56:49.593Z,180
2016-02-10T12:57:49.581Z,200
2016-02-10T12:58:49.552Z,200
2016-02-10T12:59:49.523Z,205
2016-02-10T13:00:49.511Z,190
2016-02-10T13:01:49.467Z,195
2016-02-10T13:02:49.471Z,200
2016-02-10T13:03:49.410Z,175
2016-02-10T13:04:49.412Z,165
2016-02-10T13:05:49.368Z,145
2016-02-10T13:06:49.356Z,155
2016-02-10T13:07:49.311Z,145
2016-02-10T13:08:49.283Z,150
2016-02-10T13:09:49.272Z,160
2016-02-10T13:10:49.259Z,185
2016-02-10T13:11:49.215Z,240
2016-02-10T13:12:49.171Z,290
2016-02-10T13:13:49.158Z,270
2016-02-10T13:14:49.130Z,250
2016-02-10T13:15:49.101Z,300
2016-02-10T13:16:49.072Z,250
2016-02-10T13:17:49.043Z,230
2016-02-10T13:18:49.031Z,225
2016-02-10T13:19:48.988Z,220
2016-02-10T13:20:48.991Z,240
2016-02-10T13:21:48.930Z,245
2016-02-10T13:22:48.918Z,200
2016-02-10T13:23:48.905Z,190
2016-02-10T13:24:48.876Z,180
2016-02-10T13:25:48.864Z,180
2016-02-10T13:26:48.805Z,255
2016-02-10T13:27:48.776Z,235
2016-02-10T13:28:48.607Z,215
2016-02-10T13:29:48.766Z,220
2016-02-10T13:30:48.707Z,230
2016-02-10T13:31:48.663Z,220
2016-02-10T13:32:48.649Z,235
2016-02-10T13:33:48.637Z,245
2016-02-10T13:34:48.624Z,275
2016-02-10T13:35:48.565Z,275
2016-02-10T13:36:48.535Z,255
2016-02-10T13:37:48.507Z,265
2016-02-10T13:38:48.479Z,290
2016-02-10T13:39:48.466Z,290
2016-02-10T13:40:48.453Z,310
2016-02-10T13:41:48.424Z,295
2016-02-10T13:42:48.381Z,265
2016-02-10T13:43:48.698Z,245
2016-02-10T13:44:48.341Z,265
2016-02-10T13:45:48.328Z,285
2016-02-10T13:46:48.286Z,340
2016-02-10T13:47:48.257Z,425
2016-02-10T13:48:48.229Z,410
2016-02-10T13:49:48.199Z,380
2016-02-10T13:50:48.171Z,335
2016-02-10T13:51:48.143Z,335
2016-02-10T13:52:48.098Z,365
2016-02-10T13:53:48.102Z,385
2016-02-10T13:54:48.215Z,320
2016-02-10T13:55:48.077Z,255
2016-02-10T13:56:48.033Z,210
2016-02-10T13:57:48.005Z,195
2016-02-10T13:58:47.976Z,180
2016-02-10T13:59:47.791Z,215
2016-02-10T14:00:48.247Z,245
2016-02-10T14:01:47.760Z,220
2016-02-10T14:02:48.901Z,215
2016-02-10T14:03:47.724Z,235
2016-02-10T14:04:47.700Z,180
2016-02-10T14:05:49.053Z,135
2016-02-10T14:06:48.066Z,105
2016-02-10T14:07:47.753Z,110
2016-02-10T14:08:47.708Z,120
2016-02-10T14:09:47.681Z,135
2016-02-10T14:10:47.667Z,180
2016-02-10T14:11:47.326Z,215
2016-02-10T14:12:47.440Z,190
2016-02-10T14:13:47.463Z,165
2016-02-10T14:14:47.501Z,165
2016-02-10T14:15:47.618Z,120
2016-02-10T14:16:47.516Z,125
2016-02-10T14:17:47.737Z,115